Time;durP1;ratioP1;P1;durP2;ratioP2;P2;SDS_P1;SDS_P2;PMS_P1;PMS_P2;Temp;Humidity;BMP_temperature;BMP_pressure;BME280_temperature;BME280_humidity;BME280_pressure;Samples;Min_cycle;Max_cycle;Signal;HPM_P1;HPM_P2
2021/01/11 00:00:44;;;;;;;7.90;4.47;;;;;;;-1.45;100.00;100646.84;1820805;78;20929;-69
2021/01/11 00:03:12;;;;;;;4.47;3.97;;;;;;;-1.45;100.00;100642.41;1820936;78;21050;-69
2021/01/11 00:05:40;;;;;;;4.43;3.20;;;;;;;-1.42;100.00;100634.75;1820906;78;21193;-69
2021/01/11 00:08:09;;;;;;;10.10;5.37;;;;;;;-1.41;100.00;100637.80;1820801;78;21041;-69
2021/01/11 00:10:39;;;;;;;6.23;3.20;;;;;;;-1.40;100.00;100645.69;1820832;78;21047;-69
2021/01/11 00:13:09;;;;;;;14.67;7.73;;;;;;;-1.39;100.00;100627.97;1820745;78;21060;-69
2021/01/11 00:15:37;;;;;;;9.37;5.83;;;;;;;-1.38;100.00;100627.01;1820846;78;21035;-70
2021/01/11 00:18:06;;;;;;;16.47;9.67;;;;;;;-1.40;100.00;100619.60;1820860;78;21215;-68
2021/01/11 00:20:34;;;;;;;14.37;7.47;;;;;;;-1.41;100.00;100626.72;1820826;78;21060;-69
2021/01/11 00:23:04;;;;;;;8.87;4.87;;;;;;;-1.45;100.00;100637.11;1820885;78;21020;-70
2021/01/11 00:25:32;;;;;;;10.07;6.27;;;;;;;-1.47;100.00;100630.15;1820822;78;20988;-70
2021/01/11 00:28:01;;;;;;;10.17;6.30;;;;;;;-1.47;100.00;100648.72;1820819;78;21005;-69
2021/01/11 00:30:29;;;;;;;9.27;4.90;;;;;;;-1.50;100.00;100656.86;1821454;78;21345;-70
2021/01/11 00:32:57;;;;;;;13.77;7.77;;;;;;;-1.52;100.00;100660.91;1826597;78;21038;-70
2021/01/11 00:35:25;;;;;;;12.07;6.93;;;;;;;-1.54;100.00;100672.92;1826710;78;20944;-69
2021/01/11 00:37:53;;;;;;;12.50;6.73;;;;;;;-1.55;100.00;100674.32;1826557;78;20996;-69
2021/01/11 00:40:23;;;;;;;9.67;5.53;;;;;;;-1.59;100.00;100676.27;1826654;78;20965;-70
2021/01/11 00:42:50;;;;;;;9.57;4.70;;;;;;;-1.62;100.00;100691.00;1826613;78;21355;-69
2021/01/11 00:45:19;;;;;;;6.67;3.27;;;;;;;-1.66;100.00;100683.30;1826550;78;21042;-71
2021/01/11 00:47:47;;;;;;;5.07;3.53;;;;;;;-1.71;100.00;100679.54;1826722;78;20912;-70
2021/01/11 00:50:15;;;;;;;6.73;3.37;;;;;;;-1.75;100.00;100677.51;1826560;78;20893;-70
2021/01/11 00:52:44;;;;;;;5.13;2.37;;;;;;;-1.80;100.00;100667.59;1826646;78;20900;-69
2021/01/11 00:55:14;;;;;;;5.83;2.37;;;;;;;-1.85;100.00;100664.31;1826481;78;21556;-69
2021/01/11 00:57:44;;;;;;;4.53;3.67;;;;;;;-1.89;100.00;100662.77;1822330;78;21027;-70
2021/01/11 01:00:15;;;;;;;2.30;1.93;;;;;;;-1.89;100.00;100658.78;1822129;78;21038;-70
2021/01/11 01:02:53;;;;;;;5.17;2.93;;;;;;;-1.86;100.00;100649.81;1759253;81;21022;-69
2021/01/11 01:05:21;;;;;;;4.37;3.23;;;;;;;-1.84;100.00;100637.33;1759267;80;21003;-69
2021/01/11 01:07:49;;;;;;;10.60;6.23;;;;;;;-1.82;100.00;100631.51;1759212;81;21208;-71
2021/01/11 01:10:18;;;;;;;4.53;3.70;;;;;;;-1.80;100.00;100634.45;1759233;81;20983;-69
2021/01/11 01:12:46;;;;;;;2.77;2.30;;;;;;;-1.75;100.00;100632.44;1759147;81;21040;-69
2021/01/11 01:15:15;;;;;;;3.70;2.20;;;;;;;-1.71;100.00;100617.22;1759274;81;21620;-69
2021/01/11 01:17:43;;;;;;;4.13;2.30;;;;;;;-1.70;100.00;100612.77;1759255;81;21017;-70
2021/01/11 01:20:16;;;;;;;3.53;2.70;;;;;;;-1.75;100.00;100600.62;1759265;80;23300;-69
2021/01/11 01:22:47;;;;;;;3.70;2.05;;;;;;;-1.77;100.00;100610.89;1759464;80;21053;-70
2021/01/11 01:25:17;;;;;;;3.53;2.40;;;;;;;-1.82;100.00;100618.25;1759262;81;21034;-70
2021/01/11 01:27:45;;;;;;;2.33;2.13;;;;;;;-1.88;100.00;100618.55;1759091;81;20971;-70
2021/01/11 01:30:15;;;;;;;4.27;2.30;;;;;;;-1.99;100.00;100611.98;1759277;80;21105;-69
2021/01/11 01:32:42;;;;;;;5.03;3.60;;;;;;;-2.07;100.00;100620.80;1741748;81;21201;-70
2021/01/11 01:35:11;;;;;;;2.40;2.17;;;;;;;-2.14;100.00;100614.09;1740797;80;22074;-69
2021/01/11 01:37:40;;;;;;;4.37;3.57;;;;;;;-2.21;100.00;100629.87;1758794;81;21191;-70
2021/01/11 01:40:09;;;;;;;3.07;1.73;;;;;;;-2.29;100.00;100632.43;1813109;78;20974;-70
2021/01/11 01:42:37;;;;;;;9.90;4.17;;;;;;;-2.35;100.00;100634.55;1837665;78;21008;-70
2021/01/11 01:45:07;;;;;;;8.03;4.43;;;;;;;-2.41;100.00;100634.34;1838752;77;21311;-70
2021/01/11 01:47:34;;;;;;;5.53;3.93;;;;;;;-2.45;100.00;100635.44;1854298;77;20948;-70
2021/01/11 01:50:06;;;;;;;4.63;3.47;;;;;;;-2.52;100.00;100636.19;1854225;77;20969;-70
2021/01/11 01:52:36;;;;;;;6.43;3.73;;;;;;;-2.59;100.00;100637.89;1854324;77;20961;-70
2021/01/11 01:55:12;;;;;;;5.87;3.07;;;;;;;-2.65;100.00;100624.48;1854354;77;20980;-70
2021/01/11 01:57:41;;;;;;;4.97;3.33;;;;;;;-2.69;100.00;100628.21;1854436;77;21546;-69
2021/01/11 02:00:11;;;;;;;4.57;3.50;;;;;;;-2.74;100.00;100628.89;1854350;77;21016;-72
2021/01/11 02:02:42;;;;;;;4.93;2.63;;;;;;;-2.80;100.00;100631.33;1854247;77;20953;-69
2021/01/11 02:05:13;;;;;;;4.30;2.87;;;;;;;-2.86;100.00;100634.27;1854296;77;21052;-70
2021/01/11 02:08:03;;;;;;;5.73;4.10;;;;;;;-2.91;100.00;100634.95;1854401;77;20981;-70
2021/01/11 02:10:54;;;;;;;5.77;2.60;;;;;;;-2.97;100.00;100629.48;1854283;77;21196;-70
2021/01/11 02:13:33;;;;;;;4.77;3.47;;;;;;;-3.00;100.00;100641.52;1813883;79;21029;-68
2021/01/11 02:16:34;;;;;;;6.73;4.30;;;;;;;-3.01;100.00;100642.91;1813857;79;20973;-70
2021/01/11 02:19:22;;;;;;;3.97;2.87;;;;;;;-3.04;100.00;100635.98;1769747;80;20978;-70
2021/01/11 02:22:15;;;;;;;6.73;3.97;;;;;;;-3.06;100.00;100649.27;1769894;80;20981;-70
2021/01/11 02:25:15;;;;;;;4.25;2.83;;;;;;;-3.04;100.00;100653.18;1773441;80;21436;-69
2021/01/11 02:27:56;;;;;;;4.80;3.03;;;;;;;-3.00;100.00;100647.28;1773301;80;21017;-69
2021/01/11 02:30:33;;;;;;;3.60;1.90;;;;;;;-2.95;100.00;100648.79;1747932;80;20974;-69
2021/01/11 02:33:09;;;;;;;2.67;2.27;;;;;;;-2.88;100.00;100652.87;1773316;80;21064;-69
2021/01/11 02:35:59;;;;;;;5.87;3.93;;;;;;;-2.79;100.00;100653.39;1773423;81;21069;-69
2021/01/11 02:38:27;;;;;;;7.57;4.60;;;;;;;-2.71;100.00;100653.42;1773268;80;21407;-69
2021/01/11 02:40:55;;;;;;;5.73;3.97;;;;;;;-2.62;100.00;100669.80;1773308;81;21113;-70
2021/01/11 02:43:24;;;;;;;4.80;2.67;;;;;;;-2.50;100.00;100673.20;1773272;81;21009;-69
2021/01/11 02:45:53;;;;;;;3.30;2.53;;;;;;;-2.43;100.00;100674.62;1757540;81;21325;-70
2021/01/11 02:48:43;;;;;;;4.87;2.80;;;;;;;-2.36;100.00;100668.58;1733734;82;21023;-70
2021/01/11 02:51:40;;;;;;;4.07;2.73;;;;;;;-2.32;100.00;100661.74;1733732;82;21399;-69
2021/01/11 02:54:28;;;;;;;5.47;3.47;;;;;;;-2.27;100.00;100654.03;1591751;90;21257;-70
2021/01/11 02:57:25;;;;;;;3.30;2.73;;;;;;;-2.24;100.00;100651.24;1668888;85;21032;-71
2021/01/11 02:59:56;;;;;;;2.87;2.67;;;;;;;-2.26;100.00;100655.77;1672872;85;21060;-69
2021/01/11 03:02:24;;;;;;;2.57;2.30;;;;;;;-2.34;100.00;100644.19;1674605;85;21044;-70
2021/01/11 03:04:52;;;;;;;2.67;2.23;;;;;;;-2.41;100.00;100640.97;1630470;85;21227;-70
2021/01/11 03:07:20;;;;;;;5.30;2.90;;;;;;;-2.46;100.00;100629.77;1651950;85;21038;-70
2021/01/11 03:09:48;;;;;;;4.93;3.10;;;;;;;-2.52;100.00;100618.12;1674562;85;20980;-69
2021/01/11 03:12:16;;;;;;;4.80;2.77;;;;;;;-2.59;100.00;100604.78;1665393;85;20982;-70
2021/01/11 03:14:44;;;;;;;4.10;2.97;;;;;;;-2.64;100.00;100608.12;1660190;86;21097;-70
2021/01/11 03:17:12;;;;;;;4.17;3.70;;;;;;;-2.71;100.00;100611.52;1660476;82;21506;-70
2021/01/11 03:19:40;;;;;;;4.17;2.93;;;;;;;-2.76;100.00;100622.34;1721734;83;21052;-69
2021/01/11 03:22:08;;;;;;;6.43;4.50;;;;;;;-2.82;100.00;100627.90;1721705;83;21059;-70
2021/01/11 03:24:36;;;;;;;6.33;4.33;;;;;;;-2.87;100.00;100634.75;1721840;83;20992;-70
2021/01/11 03:27:05;;;;;;;5.07;3.87;;;;;;;-2.90;100.00;100651.23;1721672;83;21030;-70
2021/01/11 03:29:32;;;;;;;8.70;4.70;;;;;;;-2.96;100.00;100670.87;1721781;83;21487;-70
2021/01/11 03:32:01;;;;;;;4.03;3.20;;;;;;;-3.00;100.00;100668.45;1721787;83;21036;-70
2021/01/11 03:34:30;;;;;;;4.57;3.57;;;;;;;-3.06;100.00;100673.09;1721822;83;21045;-69
2021/01/11 03:36:59;;;;;;;3.93;3.33;;;;;;;-3.11;100.00;100670.26;1721865;83;21784;-70
2021/01/11 03:39:28;;;;;;;3.80;3.20;;;;;;;-3.16;100.00;100659.02;1721882;83;20930;-69
2021/01/11 03:41:56;;;;;;;2.63;2.20;;;;;;;-3.21;100.00;100662.33;1721958;82;21214;-70
2021/01/11 03:44:24;;;;;;;6.03;3.60;;;;;;;-3.25;100.00;100665.58;1721945;83;21040;-69
2021/01/11 03:46:52;;;;;;;4.87;2.43;;;;;;;-3.26;100.00;100678.39;1721868;83;21009;-70
2021/01/11 03:49:20;;;;;;;5.23;2.80;;;;;;;-3.27;100.00;100666.96;1721871;83;21049;-69
2021/01/11 03:51:48;;;;;;;6.00;4.10;;;;;;;-3.25;100.00;100660.28;1721785;83;20974;-69
2021/01/11 03:54:16;;;;;;;6.00;4.37;;;;;;;-3.20;100.00;100664.06;1718707;83;21381;-70
2021/01/11 03:56:44;;;;;;;7.30;3.30;;;;;;;-3.18;100.00;100664.84;1718677;83;21041;-71
2021/01/11 03:59:11;;;;;;;7.83;4.07;;;;;;;-3.16;100.00;100666.48;1718851;83;21005;-70
2021/01/11 04:01:40;;;;;;;5.53;3.43;;;;;;;-3.14;100.00;100678.33;1773962;80;20961;-70
2021/01/11 04:04:08;;;;;;;5.80;3.73;;;;;;;-3.16;100.00;100663.84;1773905;80;20997;-69
2021/01/11 04:06:36;;;;;;;4.20;3.23;;;;;;;-3.17;100.00;100672.72;1773845;80;21195;-70
2021/01/11 04:09:05;;;;;;;5.97;4.00;;;;;;;-3.18;100.00;100672.78;1773939;80;21045;-70
2021/01/11 04:11:33;;;;;;;7.27;4.97;;;;;;;-3.20;100.00;100682.58;1761049;80;21002;-69
2021/01/11 04:14:01;;;;;;;5.77;3.40;;;;;;;-3.21;100.00;100686.98;1737172;82;21029;-71
2021/01/11 04:16:29;;;;;;;9.57;4.53;;;;;;;-3.21;100.00;100692.28;1737208;82;21013;-69
2021/01/11 04:18:58;;;;;;;5.37;3.27;;;;;;;-3.25;100.00;100686.27;1737113;82;21367;-70
2021/01/11 04:21:26;;;;;;;3.50;3.00;;;;;;;-3.27;100.00;100683.30;1737152;82;21364;-69
2021/01/11 04:23:54;;;;;;;3.57;2.93;;;;;;;-3.30;100.00;100681.63;1737228;82;21017;-69
2021/01/11 04:26:21;;;;;;;3.53;2.97;;;;;;;-3.33;100.00;100674.30;1737109;82;21001;-70
2021/01/11 04:28:49;;;;;;;4.40;3.40;;;;;;;-3.34;100.00;100673.92;1737177;82;21019;-70
2021/01/11 04:31:17;;;;;;;3.47;2.63;;;;;;;-3.38;100.00;100669.23;1737171;82;21213;-70
2021/01/11 04:33:45;;;;;;;9.13;4.63;;;;;;;-3.42;100.00;100652.23;1718543;82;20954;-70
2021/01/11 04:36:13;;;;;;;12.03;4.60;;;;;;;-3.47;100.00;100657.27;1737185;82;21061;-71
2021/01/11 04:38:41;;;;;;;6.80;4.97;;;;;;;-3.51;100.00;100663.59;1737125;82;21037;-70
2021/01/11 04:41:09;;;;;;;6.17;3.80;;;;;;;-3.53;100.00;100672.52;1737215;82;20990;-69
2021/01/11 04:43:43;;;;;;;4.63;3.57;;;;;;;-3.56;100.00;100670.00;1737223;82;21204;-71
2021/01/11 04:46:13;;;;;;;7.77;4.23;;;;;;;-3.61;100.00;100666.25;1738137;81;21024;-70
2021/01/11 04:48:42;;;;;;;8.03;4.40;;;;;;;-3.65;100.00;100665.53;1702168;84;20996;-71
2021/01/11 04:51:10;;;;;;;6.17;3.73;;;;;;;-3.67;100.00;100662.53;1702187;84;21194;-69
2021/01/11 04:53:42;;;;;;;6.37;4.40;;;;;;;-3.70;100.00;100664.86;1702085;84;21490;-70
2021/01/11 04:56:11;;;;;;;6.17;4.30;;;;;;;-3.73;100.00;100673.38;1702296;84;21376;-70
2021/01/11 04:58:57;;;;;;;10.73;4.93;;;;;;;-3.74;100.00;100676.46;1702168;84;21097;-70
2021/01/11 05:01:28;;;;;;;4.77;3.57;;;;;;;-3.74;100.00;100681.75;1702183;84;20944;-70
2021/01/11 05:04:00;;;;;;;6.17;3.53;;;;;;;-3.76;100.00;100674.35;1702191;84;20941;-70
2021/01/11 05:06:29;;;;;;;7.27;4.07;;;;;;;-3.74;100.00;100679.11;1722655;83;21117;-70
2021/01/11 05:09:06;;;;;;;5.87;3.87;;;;;;;-3.71;100.00;100680.78;1723593;82;21261;-70
2021/01/11 05:11:41;;;;;;;6.40;4.37;;;;;;;-3.63;100.00;100671.60;1845370;76;22689;-69
2021/01/11 05:14:12;;;;;;;9.97;5.37;;;;;;;-3.64;100.00;100669.02;1815239;79;21004;-69
2021/01/11 05:16:40;;;;;;;14.97;7.27;;;;;;;-3.60;100.00;100669.75;1781391;79;21485;-71
2021/01/11 05:19:24;;;;;;;5.77;4.27;;;;;;;-3.57;100.00;100673.59;1815190;79;20920;-69
2021/01/11 05:21:52;;;;;;;7.53;4.97;;;;;;;-3.56;100.00;100669.56;1815241;78;21454;-69
2021/01/11 05:24:45;;;;;;;7.57;5.40;;;;;;;-3.55;100.00;100665.98;1815299;78;20923;-70
2021/01/11 05:27:12;;;;;;;10.30;5.80;;;;;;;-3.51;100.00;100663.59;1815296;79;20929;-69
2021/01/11 05:29:41;;;;;;;13.27;7.00;;;;;;;-3.46;100.00;100669.54;1815212;78;21188;-69
2021/01/11 05:32:09;;;;;;;14.30;8.07;;;;;;;-3.39;100.00;100673.26;1815179;79;21012;-69
2021/01/11 05:34:51;;;;;;;10.17;4.53;;;;;;;-3.34;100.00;100674.77;1815214;77;21427;-68
2021/01/11 05:37:40;;;;;;;13.97;6.53;;;;;;;-3.21;100.00;100676.41;1845215;76;23346;-68
2021/01/11 05:40:16;;;;;;;7.67;4.80;;;;;;;-3.17;100.00;100689.03;1815565;79;21032;-68
2021/01/11 05:42:59;;;;;;;6.50;3.87;;;;;;;-3.10;100.00;100686.52;1810964;77;22359;-70
2021/01/11 05:45:33;;;;;;;6.10;3.95;;;;;;;-3.01;100.00;100690.53;1815292;78;21967;-69
2021/01/11 05:48:04;;;;;;;6.03;4.10;;;;;;;-2.92;100.00;100703.34;1815273;79;21019;-70
2021/01/11 05:50:47;;;;;;;12.90;7.53;;;;;;;-2.84;100.00;100695.94;1815115;78;20937;-69
2021/01/11 05:53:25;;;;;;;16.12;8.10;;;;;;;-2.75;100.00;100699.48;1815500;79;21035;-68
2021/01/11 05:55:55;;;;;;;12.33;6.73;;;;;;;-2.65;100.00;100700.41;1815313;79;21367;-69
2021/01/11 06:00:54;;;;;;;11.03;5.17;;;;;;;-2.50;100.00;100703.20;1769833;81;20950;-69
2021/01/11 06:03:22;;;;;;;8.20;5.03;;;;;;;-2.44;100.00;100696.76;1769851;81;21033;-69
2021/01/11 06:05:50;;;;;;;10.80;6.07;;;;;;;-2.36;100.00;100704.33;1769871;81;21130;-69
2021/01/11 06:08:19;;;;;;;16.53;8.53;;;;;;;-2.32;100.00;100710.75;1770040;81;21198;-75
2021/01/11 06:10:46;;;;;;;8.70;5.57;;;;;;;-2.26;100.00;100702.97;1770880;79;21050;-76
2021/01/11 06:13:22;;;;;;;15.83;8.40;;;;;;;-2.16;100.00;100704.70;1865764;76;23405;-75
2021/01/11 06:15:50;;;;;;;11.17;5.93;;;;;;;-2.17;100.00;100704.33;1843461;77;20913;-77
2021/01/11 06:18:20;;;;;;;12.60;6.37;;;;;;;-2.13;100.00;100711.19;1829691;77;21902;-76
2021/01/11 06:20:48;;;;;;;16.57;9.03;;;;;;;-2.13;100.00;100709.39;1784022;77;21017;-77
2021/01/11 06:23:26;;;;;;;6.77;4.50;;;;;;;-2.10;100.00;100713.22;1840892;77;21546;-76
2021/01/11 06:25:53;;;;;;;16.37;10.17;;;;;;;-2.07;100.00;100708.70;1840964;77;21004;-76
2021/01/11 06:28:33;;;;;;;9.17;5.50;;;;;;;-2.04;100.00;100708.56;1845569;77;21534;-78
2021/01/11 06:31:13;;;;;;;11.20;6.03;;;;;;;-2.05;100.00;100709.04;1846644;77;21368;-76
2021/01/11 06:33:44;;;;;;;11.67;6.10;;;;;;;-2.02;100.00;100710.22;1846010;77;20993;-77
2021/01/11 06:36:31;;;;;;;13.20;6.20;;;;;;;-1.98;100.00;100706.48;1840606;77;20992;-76
2021/01/11 06:39:34;;;;;;;11.07;5.17;;;;;;;-1.99;100.00;100703.90;1831645;77;21084;-75
2021/01/11 06:42:31;;;;;;;10.33;6.43;;;;;;;-1.99;100.00;100710.05;1827310;78;20953;-76
2021/01/11 07:17:43;;;;;;;16.20;8.53;;;;;;;-1.97;100.00;100713.95;1697427;79;21166;-68
2021/01/11 07:20:13;;;;;;;15.57;8.83;;;;;;;-1.74;100.00;100722.95;1672207;84;21072;-69
2021/01/11 07:22:44;;;;;;;12.60;8.27;;;;;;;-1.74;100.00;100712.83;1683244;83;21628;-69
2021/01/11 07:25:21;;;;;;;11.90;7.00;;;;;;;-1.68;100.00;100707.68;1831400;76;25994;-68
2021/01/11 07:27:55;;;;;;;10.87;6.73;;;;;;;-1.71;100.00;100702.08;1798436;79;21004;-67
2021/01/11 07:30:27;;;;;;;11.30;6.03;;;;;;;-1.68;100.00;100696.62;1812067;79;21395;-67
2021/01/11 07:32:56;;;;;;;8.07;4.70;;;;;;;-1.63;100.00;100700.36;1802813;79;21071;-70
2021/01/11 07:35:25;;;;;;;13.37;6.87;;;;;;;-1.61;100.00;100699.36;1807390;77;21049;-70
2021/01/11 07:37:54;;;;;;;15.70;8.33;;;;;;;-1.55;100.00;100703.50;1806213;79;21005;-70
2021/01/11 07:40:22;;;;;;;29.67;14.00;;;;;;;-1.51;100.00;100709.50;1812139;79;20977;-73
2021/01/11 07:42:50;;;;;;;12.57;8.30;;;;;;;-1.49;100.00;100719.09;1808146;79;21646;-69
2021/01/11 07:45:20;;;;;;;14.57;8.23;;;;;;;-1.49;100.00;100719.56;1807597;79;21083;-68
2021/01/11 07:47:51;;;;;;;14.13;8.13;;;;;;;-1.47;100.00;100721.66;1743677;82;21002;-69
2021/01/11 07:50:29;;;;;;;13.67;6.70;;;;;;;-1.45;100.00;100720.67;1759699;79;20946;-68
2021/01/11 07:52:58;;;;;;;19.07;10.33;;;;;;;-1.44;100.00;100720.19;1754796;81;21068;-69
2021/01/11 07:55:33;;;;;;;17.90;9.33;;;;;;;-1.43;100.00;100724.09;1763032;81;21193;-71
2021/01/11 07:58:03;;;;;;;14.63;8.13;;;;;;;-1.41;100.00;100726.20;1757997;81;21020;-72
2021/01/11 08:00:35;;;;;;;22.87;11.55;;;;;;;-1.39;100.00;100728.30;1734145;82;20997;-71
2021/01/11 08:03:03;;;;;;;18.97;10.67;;;;;;;-1.34;100.00;100724.95;1748734;81;21719;-70
2021/01/11 08:05:35;;;;;;;18.97;10.73;;;;;;;-1.30;100.00;100721.67;1757708;81;21048;-71
2021/01/11 08:08:06;;;;;;;19.17;9.75;;;;;;;-1.21;100.00;100725.65;1714150;81;21001;-69
2021/01/11 08:10:38;;;;;;;27.47;14.73;;;;;;;-1.13;100.00;100722.59;1669071;82;21610;-69
2021/01/11 08:13:09;;;;;;;26.17;14.47;;;;;;;-1.06;100.00;100724.87;1738928;81;21046;-71
2021/01/11 08:15:37;;;;;;;18.73;11.20;;;;;;;-1.01;100.00;100725.48;1758408;80;21178;-69
2021/01/11 08:18:05;;;;;;;21.10;11.40;;;;;;;-0.95;100.00;100726.95;1763928;81;21636;-70
2021/01/11 08:20:34;;;;;;;18.63;10.40;;;;;;;-0.90;100.00;100723.59;1723712;81;21040;-71
2021/01/11 08:23:11;;;;;;;18.60;9.33;;;;;;;-0.81;100.00;100715.61;1751937;81;21062;-74
2021/01/11 08:25:40;;;;;;;23.90;13.93;;;;;;;-0.71;100.00;100710.17;1737256;82;20969;-70
2021/01/11 08:28:11;;;;;;;34.97;21.50;;;;;;;-0.62;100.00;100700.84;1710317;83;21652;-72
2021/01/11 08:30:39;;;;;;;20.97;11.40;;;;;;;-0.55;100.00;100696.91;1735600;82;21127;-73
2021/01/11 08:33:07;;;;;;;18.73;9.77;;;;;;;-0.50;100.00;100690.88;1710561;83;21202;-73
2021/01/11 08:35:36;;;;;;;16.00;8.30;;;;;;;-0.51;100.00;100691.84;1709514;83;21060;-73
2021/01/11 08:38:05;;;;;;;17.37;9.37;;;;;;;-0.53;100.00;100687.54;1709833;83;21064;-69
2021/01/11 08:40:34;;;;;;;19.20;9.97;;;;;;;-0.50;100.00;100694.87;1709552;82;21616;-72
2021/01/11 08:43:13;;;;;;;20.73;8.50;;;;;;;-0.45;100.00;100683.52;1720090;82;21205;-69
2021/01/11 08:45:43;;;;;;;13.70;7.40;;;;;;;-0.39;100.00;100678.33;1750521;81;21371;-72
2021/01/11 08:48:14;;;;;;;21.53;11.10;;;;;;;-0.32;100.00;100660.25;1707034;82;21641;-70
2021/01/11 08:50:56;;;;;;;20.93;10.40;;;;;;;-0.22;100.00;100666.29;1725769;82;21027;-69
2021/01/11 08:53:30;;;;;;;17.57;8.90;;;;;;;-0.09;100.00;100661.16;1717738;82;21032;-71
2021/01/11 08:56:04;;;;;;;22.53;8.57;;;;;;;0.05;100.00;100674.96;1745110;81;21013;-71
2021/01/11 08:58:32;;;;;;;13.27;7.10;;;;;;;0.15;100.00;100672.64;1677271;84;21231;-71
2021/01/11 09:01:17;;;;;;;18.07;8.97;;;;;;;0.22;100.00;100673.16;1669481;84;21128;-70
2021/01/11 09:03:52;;;;;;;10.57;5.17;;;;;;;0.26;100.00;100677.34;1692771;84;21631;-72
2021/01/11 09:06:41;;;;;;;13.67;6.43;;;;;;;0.24;100.00;100680.08;1688135;84;20992;-71
2021/01/11 09:09:18;;;;;;;10.80;4.63;;;;;;;0.17;100.00;100686.70;1654559;85;21617;-70
2021/01/11 09:11:48;;;;;;;12.63;6.10;;;;;;;0.15;100.00;100684.61;1686337;83;21118;-71
2021/01/11 09:14:17;;;;;;;14.43;6.70;;;;;;;0.15;100.00;100689.45;1658427;86;21183;-71
2021/01/11 09:16:47;;;;;;;13.50;5.83;;;;;;;0.16;100.00;100684.98;1673249;85;21597;-70
2021/01/11 09:19:18;;;;;;;12.77;5.40;;;;;;;0.18;100.00;100689.28;1668456;85;21013;-71
2021/01/11 09:22:17;;;;;;;17.10;6.60;;;;;;;0.21;100.00;100686.91;1693396;84;21208;-72
2021/01/11 09:24:57;;;;;;;11.07;5.40;;;;;;;0.26;100.00;100680.84;1868498;76;26832;-69
2021/01/11 09:27:33;;;;;;;17.23;8.00;;;;;;;0.26;100.00;100682.17;1833357;77;21057;-71
2021/01/11 09:30:04;;;;;;;25.40;11.67;;;;;;;0.28;100.00;100687.41;1837855;77;22183;-70
2021/01/11 09:32:33;;;;;;;22.93;12.10;;;;;;;0.30;100.00;100690.83;1790973;77;21596;-70
2021/01/11 09:35:06;;;;;;;17.90;8.53;;;;;;;0.30;100.00;100684.19;1834588;77;21021;-71
2021/01/11 09:37:35;;;;;;;14.10;6.30;;;;;;;0.33;100.00;100698.16;1823661;77;21139;-70
2021/01/11 09:40:09;;;;;;;15.70;7.63;;;;;;;0.30;100.00;100693.49;1830594;77;21022;-70
2021/01/11 09:46:51;;;;;;;18.20;8.50;;;;;;;0.25;100.00;100669.84;1817515;77;21427;-74
2021/01/11 09:49:57;;;;;;;11.07;6.37;;;;;;;0.32;100.00;100672.52;1801047;77;20997;-69
2021/01/11 09:56:42;;;;;;;10.87;6.40;;;;;;;0.45;100.00;100655.36;1841283;76;21215;31
2021/01/11 09:59:10;;;;;;;16.83;7.10;;;;;;;0.39;100.00;100637.11;1753360;81;21150;-77
2021/01/11 10:01:44;;;;;;;19.10;8.77;;;;;;;0.41;100.00;100630.34;1710453;82;21049;-74
2021/01/11 10:04:13;;;;;;;16.73;8.17;;;;;;;0.49;100.00;100633.41;1709893;82;21051;-73
2021/01/11 10:06:53;;;;;;;16.47;9.20;;;;;;;0.56;100.00;100620.11;1739715;81;21189;-72
2021/01/11 10:09:24;;;;;;;17.23;7.33;;;;;;;0.56;100.00;100616.97;1707922;82;21832;-72
2021/01/11 10:11:59;;;;;;;17.23;7.53;;;;;;;0.55;100.00;100613.10;1621083;88;22372;-74
2021/01/11 10:14:28;;;;;;;22.47;10.97;;;;;;;0.57;100.00;100623.17;1629510;87;21270;-73
2021/01/11 10:16:57;;;;;;;12.77;6.90;;;;;;;0.53;100.00;100632.27;1612583;88;21295;-73
2021/01/11 10:19:27;;;;;;;11.93;5.80;;;;;;;0.43;100.00;100625.33;1632455;87;21269;-70
2021/01/11 10:21:56;;;;;;;19.03;8.33;;;;;;;0.32;100.00;100610.01;1601788;88;21259;-74
2021/01/11 10:24:25;;;;;;;17.10;8.27;;;;;;;0.24;100.00;100605.61;1619274;87;21580;-73
2021/01/11 10:26:53;;;;;;;14.13;6.73;;;;;;;0.18;100.00;100605.50;1627316;87;21546;-72
2021/01/11 10:29:23;;;;;;;17.90;7.90;;;;;;;0.13;100.00;100605.39;1635020;87;21612;-75
2021/01/11 10:31:52;;;;;;;13.27;6.47;;;;;;;0.09;100.00;100615.81;1643488;87;21008;-73
2021/01/11 10:34:21;;;;;;;39.17;24.67;;;;;;;0.06;100.00;100627.98;1644315;87;21183;-72
2021/01/11 10:36:52;;;;;;;17.77;8.30;;;;;;;0.04;100.00;100634.71;1642896;87;21227;-74
2021/01/11 10:39:22;;;;;;;19.60;9.37;;;;;;;0.03;100.00;100632.14;1638266;87;21627;-74
2021/01/11 10:41:53;;;;;;;12.13;6.43;;;;;;;0.01;100.00;100626.91;1638220;87;21136;-72
2021/01/11 10:44:28;;;;;;;21.33;10.50;;;;;;;0.03;100.00;100625.00;1845654;76;25624;-72
2021/01/11 10:47:00;;;;;;;16.50;8.47;;;;;;;-0.01;100.00;100632.30;1809105;77;21044;-72
2021/01/11 10:49:29;;;;;;;18.95;7.03;;;;;;;-0.03;100.00;100634.20;1738982;80;21496;-72
2021/01/11 10:51:58;;;;;;;16.43;7.60;;;;;;;-0.02;100.00;100631.06;1757164;81;21624;-72
2021/01/11 10:54:26;;;;;;;8.13;4.40;;;;;;;-0.04;100.00;100634.28;1768254;81;20914;-73
2021/01/11 10:56:54;;;;;;;8.43;4.27;;;;;;;-0.06;100.00;100635.70;1755143;80;21005;-74
2021/01/11 10:59:22;;;;;;;11.77;5.27;;;;;;;-0.08;100.00;100642.91;1739215;82;21539;-73
2021/01/11 11:01:51;;;;;;;10.63;4.10;;;;;;;-0.09;100.00;100642.55;1747704;81;21056;-73
2021/01/11 11:04:23;;;;;;;19.63;9.07;;;;;;;-0.06;100.00;100646.81;1732867;81;21036;-73
2021/01/11 11:06:53;;;;;;;17.33;6.10;;;;;;;-0.06;100.00;100656.97;1761869;81;21001;-73
2021/01/11 11:09:21;;;;;;;12.67;5.87;;;;;;;-0.04;100.00;100651.57;1747272;79;21069;-73
2021/01/11 11:11:52;;;;;;;9.23;4.57;;;;;;;0.04;100.00;100649.81;1741436;82;21002;-76
2021/01/11 11:14:23;;;;;;;8.30;4.63;;;;;;;0.09;100.00;100654.37;1755598;81;21377;-72
2021/01/11 11:16:57;;;;;;;8.20;4.87;;;;;;;0.14;100.00;100646.98;1765730;81;21084;-69
2021/01/11 11:19:26;;;;;;;5.67;3.43;;;;;;;0.15;100.00;100654.88;1736643;81;20943;-74
2021/01/11 11:21:54;;;;;;;12.33;5.00;;;;;;;0.16;100.00;100657.05;1749730;81;21020;-72
2021/01/11 11:24:22;;;;;;;6.60;3.10;;;;;;;0.18;100.00;100659.17;1735617;81;21100;-70
2021/01/11 11:26:50;;;;;;;11.33;5.87;;;;;;;0.20;100.00;100653.77;1741032;82;21208;-71
2021/01/11 11:29:18;;;;;;;13.93;6.80;;;;;;;0.22;100.00;100643.90;1717298;82;21027;-69
2021/01/11 11:31:48;;;;;;;13.20;6.70;;;;;;;0.22;100.00;100638.09;1754188;81;21040;-71
2021/01/11 11:34:16;;;;;;;18.07;7.80;;;;;;;0.22;100.00;100640.75;1759758;79;21009;-72
2021/01/11 11:36:44;;;;;;;6.20;4.20;;;;;;;0.21;100.00;100635.03;1763059;81;20962;-71
2021/01/11 11:39:14;;;;;;;6.73;4.27;;;;;;;0.20;100.00;100639.99;1759945;81;21629;-73
2021/01/11 11:41:42;;;;;;;13.20;5.13;;;;;;;0.17;100.00;100636.17;1726281;82;21029;-74
2021/01/11 11:44:10;;;;;;;11.87;5.17;;;;;;;0.15;100.00;100642.06;1768343;80;21760;-72
2021/01/11 11:46:40;;;;;;;6.57;3.90;;;;;;;0.13;100.00;100642.62;1745457;82;21084;-74
2021/01/11 11:49:10;;;;;;;8.50;4.53;;;;;;;0.10;100.00;100644.97;1746720;81;21052;-71
2021/01/11 11:51:42;;;;;;;19.40;9.43;;;;;;;0.06;100.00;100654.09;1761982;81;21208;-71
2021/01/11 11:54:10;;;;;;;10.53;5.70;;;;;;;-0.01;100.00;100663.36;1665305;86;21142;-76
2021/01/11 11:56:41;;;;;;;13.20;6.90;;;;;;;-0.07;100.00;100665.03;1667958;86;21122;-71
2021/01/11 11:59:16;;;;;;;11.40;5.43;;;;;;;-0.08;100.00;100662.84;1836556;76;26875;-70
2021/01/11 12:01:44;;;;;;;11.40;5.17;;;;;;;-0.16;100.00;100677.52;1786235;79;20925;-71
2021/01/11 12:04:12;;;;;;;6.30;3.30;;;;;;;-0.21;100.00;100683.12;1730810;81;21035;-70
2021/01/11 12:06:44;;;;;;;6.30;4.13;;;;;;;-0.26;100.00;100685.17;1750517;81;20981;-71
2021/01/11 12:09:12;;;;;;;12.93;6.37;;;;;;;-0.27;100.00;100688.28;1668164;84;21117;-71
2021/01/11 12:11:45;;;;;;;9.03;4.67;;;;;;;-0.32;100.00;100694.80;1705207;84;20956;-72
2021/01/11 12:14:13;;;;;;;12.00;4.70;;;;;;;-0.37;100.00;100688.88;1667972;86;21643;-71
2021/01/11 12:16:41;;;;;;;10.77;4.93;;;;;;;-0.37;100.00;100698.17;1707917;82;21834;-70
2021/01/11 12:19:09;;;;;;;11.47;5.50;;;;;;;-0.36;100.00;100694.59;1672831;84;21063;-70